createdAt,value
2023-03-13T00:01:04.083Z,1.07
2023-03-13T00:03:33.702Z,1.30
2023-03-13T00:06:02.068Z,2.70
2023-03-13T00:08:31.206Z,1.53
2023-03-13T00:10:59.667Z,1.20
2023-03-13T00:13:27.989Z,1.37
2023-03-13T00:16:01.687Z,1.17
2023-03-13T00:18:29.970Z,1.10
2023-03-13T00:21:03.526Z,1.20
2023-03-13T00:23:31.897Z,1.00
2023-03-13T00:26:00.278Z,1.10
2023-03-13T00:28:32.281Z,1.00
2023-03-13T00:31:04.642Z,0.90
2023-03-13T00:33:33.574Z,1.03
2023-03-13T00:36:03.708Z,0.90
2023-03-13T00:38:31.977Z,0.90
2023-03-13T00:41:00.775Z,0.90
2023-03-13T00:43:29.081Z,1.17
2023-03-13T00:45:57.441Z,1.10
2023-03-13T00:48:26.147Z,1.17
2023-03-13T00:50:54.673Z,0.87
2023-03-13T00:53:24.595Z,0.97
2023-03-13T00:55:54.112Z,1.00
2023-03-13T00:58:22.410Z,1.00
2023-03-13T01:00:50.701Z,1.00
2023-03-13T01:03:19.114Z,0.90
2023-03-13T01:05:47.737Z,0.90
2023-03-13T01:08:16.118Z,1.00
2023-03-13T01:10:45.875Z,1.00
2023-03-13T01:13:14.142Z,1.53
2023-03-13T01:15:42.590Z,2.23
2023-03-13T01:18:10.889Z,2.43
2023-03-13T01:20:40.972Z,1.13
2023-03-13T01:23:09.851Z,0.90
2023-03-13T01:25:38.688Z,0.90
2023-03-13T01:28:08.343Z,1.10
2023-03-13T01:30:36.567Z,0.67
2023-03-13T01:33:04.868Z,0.87
2023-03-13T01:35:33.308Z,0.80
2023-03-13T01:38:01.912Z,0.87
2023-03-13T01:40:30.156Z,0.80
2023-03-13T01:42:59.500Z,1.10
2023-03-13T01:45:46.494Z,0.77
2023-03-13T01:48:16.102Z,0.73
2023-03-13T01:50:44.391Z,0.90
2023-03-13T01:53:12.740Z,0.90
2023-03-13T01:55:41.098Z,1.80
2023-03-13T01:58:09.771Z,1.47
2023-03-13T02:00:38.676Z,0.80
2023-03-13T02:03:09.048Z,1.00
2023-03-13T02:05:40.267Z,0.87
2023-03-13T02:08:10.474Z,0.77
2023-03-13T02:10:41.530Z,0.90
2023-03-13T02:13:14.180Z,0.73
2023-03-13T02:15:42.975Z,0.70
2023-03-13T02:18:11.706Z,0.80
2023-03-13T02:20:42.239Z,0.80
2023-03-13T02:23:14.662Z,0.70
2023-03-13T02:25:46.121Z,0.80
2023-03-13T02:28:15.680Z,0.80
2023-03-13T02:30:44.809Z,1.13
2023-03-13T02:33:13.121Z,2.60
2023-03-13T02:35:41.596Z,1.50
2023-03-13T02:38:11.841Z,1.40
2023-03-13T02:40:41.901Z,1.67
2023-03-13T02:43:13.815Z,2.30
2023-03-13T02:45:42.185Z,2.73
2023-03-13T02:48:10.421Z,2.60
2023-03-13T02:50:39.054Z,1.83
2023-03-13T02:53:09.182Z,1.83
2023-03-13T02:55:40.376Z,1.53
2023-03-13T02:58:08.793Z,1.43
2023-03-13T03:00:38.627Z,1.13
2023-03-13T03:03:06.974Z,3.17
2023-03-13T03:05:35.230Z,2.70
2023-03-13T03:08:03.580Z,1.70
2023-03-13T03:10:31.847Z,1.13
2023-03-13T03:13:00.145Z,1.40
2023-03-13T03:15:28.415Z,1.20
2023-03-13T03:17:58.116Z,1.50
2023-03-13T03:20:26.420Z,1.20
2023-03-13T03:22:54.711Z,1.03
2023-03-13T03:25:23.126Z,0.90
2023-03-13T03:27:51.400Z,1.67
2023-03-13T03:30:19.936Z,0.87
2023-03-13T03:32:48.334Z,0.80
2023-03-13T03:35:20.287Z,0.70
2023-03-13T03:37:48.585Z,0.90
2023-03-13T03:40:17.037Z,1.00
2023-03-13T03:42:45.341Z,0.80
2023-03-13T03:45:13.663Z,0.67
2023-03-13T03:47:42.142Z,0.77
2023-03-13T03:50:11.662Z,0.77
2023-03-13T03:52:41.246Z,0.80
2023-03-13T03:55:09.868Z,0.90
2023-03-13T03:57:38.208Z,1.40
2023-03-13T04:00:08.078Z,0.90
2023-03-13T04:02:36.525Z,0.90
2023-03-13T04:05:05.341Z,1.20
2023-03-13T04:07:33.768Z,1.30
2023-03-13T04:10:03.427Z,1.20
2023-03-13T04:12:31.754Z,1.40
2023-03-13T04:15:00.066Z,0.80
2023-03-13T04:17:28.566Z,0.80
2023-03-13T04:19:56.859Z,0.80
2023-03-13T04:22:25.098Z,0.73
2023-03-13T04:24:53.407Z,0.60
2023-03-13T04:27:22.980Z,0.80
2023-03-13T04:29:51.318Z,0.70
2023-03-13T04:32:19.657Z,0.80
2023-03-13T04:34:48.049Z,1.17
2023-03-13T04:37:16.344Z,0.93
2023-03-13T04:39:44.686Z,1.30
2023-03-13T04:42:13.359Z,1.40
2023-03-13T04:44:43.715Z,0.67
2023-03-13T04:47:12.281Z,0.60
2023-03-13T04:49:40.612Z,0.90
2023-03-13T04:52:09.224Z,0.60
2023-03-13T04:54:37.631Z,0.87
2023-03-13T04:57:06.181Z,0.70
2023-03-13T04:59:35.282Z,0.73
2023-03-13T05:02:04.996Z,0.80
2023-03-13T05:04:33.315Z,1.00
2023-03-13T05:07:01.656Z,0.83
2023-03-13T05:09:29.929Z,0.90
2023-03-13T05:11:58.397Z,0.90
2023-03-13T05:14:26.922Z,1.03
2023-03-13T05:16:55.170Z,1.10
2023-03-13T05:19:24.800Z,0.80
2023-03-13T05:21:53.127Z,1.00
2023-03-13T05:24:21.428Z,1.03
2023-03-13T05:26:49.712Z,0.73
2023-03-13T05:29:18.063Z,1.00
2023-03-13T05:31:46.298Z,1.10
2023-03-13T05:34:14.657Z,0.90
2023-03-13T05:36:44.333Z,0.60
2023-03-13T05:39:12.744Z,1.20
2023-03-13T05:41:41.077Z,0.87
2023-03-13T05:44:09.314Z,0.70
2023-03-13T05:46:37.619Z,0.80
2023-03-13T05:49:05.977Z,0.83
2023-03-13T05:51:34.360Z,0.83
2023-03-13T05:54:04.072Z,0.60
2023-03-13T05:56:32.340Z,0.80
2023-03-13T05:59:00.664Z,0.80
2023-03-13T06:01:29.042Z,0.80
2023-03-13T06:03:57.462Z,0.97
2023-03-13T06:06:25.979Z,1.00
2023-03-13T06:08:54.197Z,0.87
2023-03-13T06:11:24.079Z,0.70
2023-03-13T06:13:53.237Z,0.90
2023-03-13T06:16:21.719Z,0.80
2023-03-13T06:18:50.291Z,1.47
2023-03-13T06:21:18.654Z,1.20
2023-03-13T06:23:47.008Z,0.90
2023-03-13T06:26:15.336Z,1.07
2023-03-13T06:28:45.145Z,0.90
2023-03-13T06:31:13.451Z,0.93
2023-03-13T06:33:41.908Z,0.60
2023-03-13T06:36:10.419Z,0.60
2023-03-13T06:38:38.775Z,1.27
2023-03-13T06:41:07.266Z,0.87
2023-03-13T06:43:35.525Z,0.77
2023-03-13T06:46:07.110Z,0.90
2023-03-13T06:48:35.863Z,0.90
2023-03-13T06:51:04.234Z,0.97
2023-03-13T06:53:32.690Z,0.83
2023-03-13T06:56:03.006Z,1.10
2023-03-13T06:58:32.954Z,1.27
2023-03-13T07:01:01.558Z,0.87
2023-03-13T07:03:31.307Z,0.90
2023-03-13T07:05:59.857Z,0.90
2023-03-13T07:08:28.363Z,0.60
2023-03-13T07:11:00.010Z,0.70
2023-03-13T07:13:28.459Z,0.93
2023-03-13T07:15:57.154Z,1.00
2023-03-13T07:18:25.532Z,0.70
2023-03-13T07:20:55.879Z,0.80
2023-03-13T07:23:24.591Z,0.90
2023-03-13T07:25:56.603Z,0.87
2023-03-13T07:28:25.524Z,1.50
2023-03-13T07:30:53.966Z,0.87
2023-03-13T07:33:22.537Z,0.80
2023-03-13T07:35:51.287Z,0.80
2023-03-13T07:38:21.082Z,1.07
2023-03-13T07:40:50.405Z,1.00
2023-03-13T07:43:18.948Z,0.80
2023-03-13T07:45:53.805Z,0.63
2023-03-13T07:48:22.481Z,0.77
2023-03-13T07:50:50.828Z,0.93
2023-03-13T07:53:21.261Z,1.00
2023-03-13T07:55:58.753Z,0.70
2023-03-13T07:58:27.696Z,0.70
2023-03-13T08:00:56.414Z,0.87
2023-03-13T08:03:25.154Z,0.90
2023-03-13T08:06:03.021Z,0.67
2023-03-13T08:08:31.881Z,0.70
2023-03-13T08:11:06.551Z,0.70
2023-03-13T08:13:35.601Z,0.80
2023-03-13T08:16:05.351Z,0.80
2023-03-13T08:18:34.970Z,0.57
2023-03-13T08:21:04.210Z,0.93
2023-03-13T08:23:32.591Z,0.93
2023-03-13T08:26:05.243Z,0.90
2023-03-13T08:28:33.645Z,0.90
2023-03-13T08:31:08.473Z,0.70
2023-03-13T08:33:36.814Z,1.00
2023-03-13T08:36:13.053Z,0.80
2023-03-13T08:38:42.612Z,0.83
2023-03-13T08:41:13.502Z,0.97
2023-03-13T08:43:41.770Z,0.60
2023-03-13T08:46:10.146Z,0.90
2023-03-13T08:48:38.565Z,0.80
2023-03-13T08:51:08.142Z,0.83
2023-03-13T08:53:36.924Z,0.60
2023-03-13T08:56:05.562Z,0.70
2023-03-13T08:58:35.476Z,0.80
2023-03-13T09:01:04.383Z,0.80
2023-03-13T09:03:33.107Z,0.67
2023-03-13T09:06:01.861Z,0.90
2023-03-13T09:08:30.528Z,0.80
2023-03-13T09:10:59.165Z,0.90
2023-03-13T09:13:28.009Z,0.97
2023-03-13T09:15:58.140Z,0.80
2023-03-13T09:18:27.062Z,0.83
2023-03-13T09:20:55.524Z,0.90
2023-03-13T09:23:24.307Z,0.70
2023-03-13T09:25:54.862Z,0.63
2023-03-13T09:28:23.478Z,0.70
2023-03-13T09:30:51.863Z,0.70
2023-03-13T09:33:23.864Z,0.80
2023-03-13T09:35:52.135Z,0.80
2023-03-13T09:38:21.054Z,0.60
2023-03-13T09:41:04.924Z,0.60
2023-03-13T09:43:39.695Z,0.50
2023-03-13T09:46:09.701Z,0.70
2023-03-13T09:48:40.491Z,0.60
2023-03-13T09:51:13.490Z,0.50
2023-03-13T09:53:43.836Z,0.70
2023-03-13T09:56:16.282Z,0.50
2023-03-13T09:58:49.562Z,0.70
2023-03-13T10:01:19.294Z,0.50
2023-03-13T10:03:53.941Z,0.50
2023-03-13T10:06:23.186Z,0.50
2023-03-13T10:08:52.752Z,0.70
2023-03-13T10:11:25.862Z,0.50
2023-03-13T10:13:56.360Z,0.80
2023-03-13T10:16:26.703Z,0.60
2023-03-13T10:18:57.852Z,0.70
2023-03-13T10:21:28.155Z,0.47
2023-03-13T10:23:59.696Z,0.60
2023-03-13T10:26:29.631Z,0.57
2023-03-13T10:28:58.843Z,0.50
2023-03-13T10:31:28.928Z,0.50
2023-03-13T10:34:07.264Z,0.63
2023-03-13T10:36:41.544Z,0.70
2023-03-13T10:39:14.834Z,0.60
2023-03-13T10:41:43.193Z,0.60
2023-03-13T10:44:17.717Z,0.57
2023-03-13T10:46:47.230Z,0.60
2023-03-13T10:49:18.440Z,1.00
2023-03-13T10:51:49.512Z,0.70
2023-03-13T10:54:18.753Z,0.90
2023-03-13T10:56:47.239Z,0.63
2023-03-13T10:59:23.559Z,0.70
2023-03-13T11:01:52.285Z,0.77
2023-03-13T11:04:23.026Z,0.90
2023-03-13T11:06:53.656Z,0.50
2023-03-13T11:09:22.456Z,0.70
2023-03-13T11:11:51.834Z,0.70
2023-03-13T11:14:20.931Z,0.80
2023-03-13T11:16:50.401Z,0.70
2023-03-13T11:19:28.299Z,0.90
2023-03-13T11:22:01.950Z,0.70
2023-03-13T11:24:34.770Z,0.70
2023-03-13T11:27:06.633Z,0.60
2023-03-13T11:29:42.874Z,0.67
2023-03-13T11:32:17.920Z,0.80
2023-03-13T11:34:49.120Z,0.80
2023-03-13T11:37:19.098Z,0.80
2023-03-13T11:39:57.246Z,0.60
2023-03-13T11:42:43.466Z,0.80
2023-03-13T11:45:18.681Z,0.70
2023-03-13T11:47:53.202Z,0.50
2023-03-13T11:50:28.815Z,1.40
2023-03-13T11:53:04.612Z,0.60
2023-03-13T11:55:42.873Z,0.60
2023-03-13T11:58:29.102Z,0.67
2023-03-13T12:01:00.108Z,0.60
2023-03-13T12:03:32.623Z,0.63
2023-03-13T12:06:02.794Z,0.70
2023-03-13T12:08:33.709Z,0.60
2023-03-13T12:11:06.939Z,0.53
2023-03-13T12:13:37.827Z,0.70
2023-03-13T12:16:09.671Z,0.70
2023-03-13T12:18:42.326Z,0.60
2023-03-13T12:21:17.964Z,0.50
2023-03-13T12:23:50.781Z,0.50
2023-03-13T12:26:20.586Z,1.07
2023-03-13T12:28:51.150Z,1.10
2023-03-13T12:31:22.166Z,0.83
2023-03-13T12:33:54.452Z,0.67
2023-03-13T12:36:29.276Z,0.50
2023-03-13T12:38:59.457Z,0.70
2023-03-13T12:41:29.630Z,0.57
2023-03-13T12:44:08.439Z,0.80
2023-03-13T12:46:43.059Z,0.70
2023-03-13T12:49:25.594Z,0.80
2023-03-13T12:52:02.976Z,0.90
2023-03-13T12:54:38.100Z,0.60
2023-03-13T12:57:10.178Z,0.50
2023-03-13T12:59:40.671Z,0.83
2023-03-13T13:02:16.342Z,0.73
2023-03-13T13:04:46.067Z,0.50
2023-03-13T13:07:23.363Z,0.60
2023-03-13T13:10:02.857Z,0.77
2023-03-13T13:12:31.908Z,0.70
2023-03-13T13:15:27.112Z,0.90
2023-03-13T13:18:00.803Z,0.80
2023-03-13T13:20:40.306Z,1.03
2023-03-13T13:23:23.516Z,0.77
2023-03-13T13:25:53.474Z,0.83
2023-03-13T13:28:27.522Z,0.90
2023-03-13T13:30:56.770Z,1.20
2023-03-13T13:33:41.443Z,0.90
2023-03-13T13:36:30.458Z,0.80
2023-03-13T13:38:59.749Z,0.80
2023-03-13T13:41:35.805Z,1.00
2023-03-13T13:44:20.634Z,0.80
2023-03-13T13:46:49.121Z,0.83
2023-03-13T13:49:18.778Z,0.90
2023-03-13T13:52:02.064Z,0.87
2023-03-13T13:54:34.729Z,0.80
2023-03-13T13:57:09.349Z,0.97
2023-03-13T13:59:44.611Z,0.80
2023-03-13T14:02:20.975Z,1.00
2023-03-13T14:04:56.938Z,1.00
2023-03-13T14:07:30.655Z,0.80
2023-03-13T14:10:03.811Z,1.10
2023-03-13T14:12:34.803Z,0.90
2023-03-13T14:15:08.509Z,0.77
2023-03-13T14:17:40.443Z,0.70
2023-03-13T14:20:18.235Z,0.93
2023-03-13T14:22:49.454Z,0.90
2023-03-13T14:25:17.929Z,1.13
2023-03-13T14:27:48.023Z,1.00
2023-03-13T14:30:17.356Z,0.90
2023-03-13T14:32:46.150Z,0.80
2023-03-13T14:35:16.688Z,0.80
2023-03-13T14:37:46.041Z,0.90
2023-03-13T14:40:21.501Z,0.80
2023-03-13T14:42:52.360Z,0.70
2023-03-13T14:45:24.500Z,0.83
2023-03-13T14:47:53.319Z,0.90
2023-03-13T14:50:22.737Z,0.90
2023-03-13T14:52:51.848Z,0.90
2023-03-13T14:55:40.378Z,0.80
2023-03-13T14:58:27.004Z,2.50
2023-03-13T15:00:56.136Z,3.10
2023-03-13T15:03:27.210Z,2.40
2023-03-13T15:06:14.300Z,0.90
2023-03-13T15:08:43.812Z,3.13
2023-03-13T15:11:27.918Z,1.10
2023-03-13T15:13:58.351Z,1.00
2023-03-13T15:16:27.232Z,1.47
2023-03-13T15:18:56.234Z,0.83
2023-03-13T15:21:26.435Z,1.10
2023-03-13T15:23:55.629Z,0.67
2023-03-13T15:26:24.814Z,0.60
2023-03-13T15:28:53.407Z,0.70
2023-03-13T15:31:25.600Z,0.70
2023-03-13T15:33:56.479Z,0.77
2023-03-13T15:36:24.766Z,0.70
2023-03-13T15:38:53.081Z,0.80
2023-03-13T15:41:21.791Z,0.60
2023-03-13T15:43:52.584Z,0.60
2023-03-13T15:46:21.338Z,0.70
2023-03-13T15:48:51.880Z,1.03
2023-03-13T15:51:20.932Z,0.90
2023-03-13T15:53:49.325Z,0.77
2023-03-13T15:56:18.604Z,1.17
2023-03-13T15:58:47.543Z,0.90
2023-03-13T16:01:16.725Z,0.80
2023-03-13T16:03:45.343Z,0.80
2023-03-13T16:06:19.940Z,0.90
2023-03-13T16:08:48.272Z,0.60
2023-03-13T16:11:17.352Z,0.70
2023-03-13T16:13:45.721Z,1.00
2023-03-13T16:16:19.589Z,0.90
2023-03-13T16:18:48.015Z,0.80
2023-03-13T16:21:20.172Z,0.77
2023-03-13T16:23:48.548Z,0.70
2023-03-13T16:26:18.346Z,0.80
2023-03-13T16:28:46.954Z,0.80
2023-03-13T16:31:18.078Z,1.07
2023-03-13T16:33:46.514Z,1.10
2023-03-13T16:36:16.335Z,0.80
2023-03-13T16:38:46.159Z,0.90
2023-03-13T16:41:17.728Z,1.23
2023-03-13T16:43:46.507Z,1.20
2023-03-13T16:46:16.488Z,0.93
2023-03-13T16:48:45.039Z,1.13
2023-03-13T16:51:17.433Z,0.90
2023-03-13T16:53:47.900Z,1.20
2023-03-13T16:56:19.112Z,1.30
2023-03-13T16:58:47.882Z,1.30
2023-03-13T17:01:16.760Z,1.40
2023-03-13T17:03:45.393Z,1.30
2023-03-13T17:06:17.927Z,1.20
2023-03-13T17:08:47.682Z,1.20
2023-03-13T17:11:17.972Z,1.53
2023-03-13T17:13:47.258Z,1.03
2023-03-13T17:16:17.106Z,1.70
2023-03-13T17:18:46.470Z,1.30
2023-03-13T17:21:15.778Z,1.10
2023-03-13T17:23:44.303Z,1.10
2023-03-13T17:26:18.822Z,1.57
2023-03-13T17:28:48.118Z,1.40
2023-03-13T17:31:16.446Z,1.17
2023-03-13T17:33:44.737Z,1.30
2023-03-13T17:36:17.070Z,1.00
2023-03-13T17:38:45.447Z,1.30
2023-03-13T17:41:14.157Z,1.10
2023-03-13T17:43:43.886Z,1.03
2023-03-13T17:46:16.931Z,1.07
2023-03-13T17:48:45.342Z,0.80
2023-03-13T17:51:17.691Z,0.90
2023-03-13T17:53:46.099Z,1.00
2023-03-13T17:56:15.657Z,0.97
2023-03-13T17:58:45.408Z,1.07
2023-03-13T18:01:14.993Z,0.97
2023-03-13T18:03:43.799Z,1.87
2023-03-13T18:06:18.253Z,1.87
2023-03-13T18:08:46.472Z,1.10
2023-03-13T18:11:15.437Z,1.43
2023-03-13T18:13:45.510Z,1.00
2023-03-13T18:16:17.373Z,1.20
2023-03-13T18:18:45.727Z,1.20
2023-03-13T18:21:13.986Z,1.27
2023-03-13T18:23:42.468Z,1.20
2023-03-13T18:26:24.708Z,1.60
2023-03-13T18:29:00.004Z,1.50
2023-03-13T18:31:29.746Z,1.27
2023-03-13T18:33:58.613Z,1.03
2023-03-13T18:36:27.395Z,1.20
2023-03-13T18:38:56.130Z,1.50
2023-03-13T18:41:24.904Z,1.40
2023-03-13T18:43:54.776Z,1.50
2023-03-13T18:46:23.792Z,3.30
2023-03-13T18:48:52.662Z,2.20
2023-03-13T18:51:21.860Z,2.10
2023-03-13T18:53:50.157Z,1.90
2023-03-13T18:56:19.975Z,1.97
2023-03-13T18:58:50.493Z,2.10
2023-03-13T19:01:21.405Z,1.80
2023-03-13T19:03:50.078Z,2.00
2023-03-13T19:06:19.981Z,2.47
2023-03-13T19:08:48.512Z,2.33
2023-03-13T19:11:17.028Z,1.97
2023-03-13T19:13:45.427Z,2.60
2023-03-13T19:16:18.202Z,2.43
2023-03-13T19:18:48.676Z,2.23
2023-03-13T19:21:21.873Z,2.00
2023-03-13T19:23:50.511Z,1.33
2023-03-13T19:26:20.311Z,1.70
2023-03-13T19:28:48.730Z,1.63
2023-03-13T19:31:18.659Z,2.10
2023-03-13T19:33:48.669Z,1.50
2023-03-13T19:36:17.769Z,1.60
2023-03-13T19:38:46.595Z,1.53
2023-03-13T19:41:15.553Z,1.77
2023-03-13T19:43:43.960Z,1.70
2023-03-13T19:46:23.111Z,1.43
2023-03-13T19:48:53.133Z,1.73
2023-03-13T19:51:21.510Z,1.80
2023-03-13T19:53:49.840Z,1.57
2023-03-13T19:56:18.904Z,1.60
2023-03-13T19:58:47.712Z,1.37
2023-03-13T20:01:17.788Z,1.87
2023-03-13T20:03:46.414Z,1.43
2023-03-13T20:06:20.100Z,1.63
2023-03-13T20:08:48.499Z,1.80
2023-03-13T20:11:17.452Z,1.87
2023-03-13T20:13:45.740Z,1.60
2023-03-13T20:16:14.343Z,1.30
2023-03-13T20:18:43.635Z,1.70
2023-03-13T20:21:12.456Z,1.70
2023-03-13T20:23:42.155Z,1.40
2023-03-13T20:26:11.506Z,1.47
2023-03-13T20:28:40.765Z,1.37
2023-03-13T20:31:09.672Z,1.80
2023-03-13T20:33:38.606Z,1.40
2023-03-13T20:36:08.111Z,1.40
2023-03-13T20:38:36.754Z,1.50
2023-03-13T20:41:06.689Z,2.20
2023-03-13T20:43:35.759Z,1.20
2023-03-13T20:46:04.442Z,1.53
2023-03-13T20:48:33.823Z,1.50
2023-03-13T20:51:02.302Z,1.63
2023-03-13T20:53:30.660Z,1.97
2023-03-13T20:55:59.038Z,1.30
2023-03-13T20:58:28.772Z,2.00
2023-03-13T21:00:59.965Z,1.80
2023-03-13T21:03:28.340Z,1.60
2023-03-13T21:05:56.886Z,1.53
2023-03-13T21:08:25.183Z,1.23
2023-03-13T21:10:53.506Z,1.60
2023-03-13T21:13:21.803Z,1.13
2023-03-13T21:15:51.578Z,1.37
2023-03-13T21:18:19.858Z,1.63
2023-03-13T21:20:48.451Z,1.90
2023-03-13T21:23:16.763Z,1.90
2023-03-13T21:25:45.120Z,1.60
2023-03-13T21:28:13.494Z,1.73
2023-03-13T21:30:41.776Z,1.30
2023-03-13T21:33:11.911Z,1.50
2023-03-13T21:35:40.222Z,1.53
2023-03-13T21:38:08.625Z,1.40
2023-03-13T21:40:36.965Z,1.50
2023-03-13T21:43:05.323Z,1.63
2023-03-13T21:45:34.658Z,1.20
2023-03-13T21:48:02.978Z,1.30
2023-03-13T21:50:33.181Z,1.50
2023-03-13T21:53:01.558Z,1.30
2023-03-13T21:55:29.952Z,1.70
2023-03-13T21:57:58.345Z,1.73
2023-03-13T22:00:26.841Z,2.40
2023-03-13T22:02:55.402Z,1.40
2023-03-13T22:05:23.746Z,1.70
2023-03-13T22:07:53.402Z,0.93
2023-03-13T22:10:21.782Z,1.17
2023-03-13T22:12:50.007Z,1.20
2023-03-13T22:15:18.412Z,1.77
2023-03-13T22:17:46.746Z,1.10
2023-03-13T22:20:15.298Z,1.10
2023-03-13T22:22:43.574Z,1.43
2023-03-13T22:25:13.287Z,1.57
2023-03-13T22:27:41.623Z,1.10
2023-03-13T22:30:10.815Z,1.20
2023-03-13T22:32:39.307Z,1.57
2023-03-13T22:35:08.427Z,1.63
2023-03-13T22:37:36.899Z,1.80
2023-03-13T22:40:05.812Z,1.37
2023-03-13T22:42:35.453Z,1.60
2023-03-13T22:45:03.780Z,1.60
2023-03-13T22:47:32.520Z,1.80
2023-03-13T22:50:00.814Z,1.70
2023-03-13T22:52:30.928Z,1.80
2023-03-13T22:54:59.467Z,1.50
2023-03-13T22:57:29.126Z,1.60
2023-03-13T23:00:00.242Z,1.53
2023-03-13T23:02:28.982Z,1.53
2023-03-13T23:04:58.565Z,1.50
2023-03-13T23:07:28.454Z,1.50
2023-03-13T23:09:57.085Z,1.33
2023-03-13T23:12:25.448Z,1.43
2023-03-13T23:14:54.188Z,1.83
2023-03-13T23:17:24.368Z,1.80
2023-03-13T23:19:53.005Z,1.10
2023-03-13T23:22:21.900Z,1.40
2023-03-13T23:24:50.426Z,1.40
2023-03-13T23:27:18.798Z,0.80
2023-03-13T23:29:47.260Z,0.87
2023-03-13T23:32:15.723Z,0.70
2023-03-13T23:34:45.325Z,0.90
2023-03-13T23:37:13.521Z,0.83
2023-03-13T23:39:41.773Z,0.80
2023-03-13T23:42:10.102Z,0.80
2023-03-13T23:44:38.539Z,1.00
2023-03-13T23:47:06.911Z,1.10
2023-03-13T23:49:35.247Z,1.07
2023-03-13T23:52:05.154Z,1.10
2023-03-13T23:54:33.366Z,0.93
2023-03-13T23:57:01.705Z,0.87
2023-03-13T23:59:30.023Z,0.60
